createdAt,value
2023-05-08T00:00:38.716Z,6.50
2023-05-08T00:03:05.687Z,6.50
2023-05-08T00:05:32.720Z,6.50
2023-05-08T00:08:02.685Z,6.40
2023-05-08T00:10:29.964Z,6.40
2023-05-08T00:12:57.091Z,6.40
2023-05-08T00:15:24.057Z,6.50
2023-05-08T00:17:51.034Z,6.50
2023-05-08T00:20:18.061Z,6.50
2023-05-08T00:22:44.985Z,6.50
2023-05-08T00:25:11.930Z,6.50
2023-05-08T00:27:39.002Z,6.40
2023-05-08T00:30:07.892Z,6.40
2023-05-08T00:32:34.881Z,6.40
2023-05-08T00:35:01.858Z,6.50
2023-05-08T00:37:28.768Z,6.40
2023-05-08T00:39:55.716Z,6.40
2023-05-08T00:42:22.652Z,6.40
2023-05-08T00:44:49.588Z,6.40
2023-05-08T00:47:16.550Z,6.40
2023-05-08T00:49:43.735Z,6.40
2023-05-08T00:52:11.084Z,6.40
2023-05-08T00:54:39.048Z,6.40
2023-05-08T00:57:08.823Z,6.30
2023-05-08T00:59:37.059Z,6.30
2023-05-08T01:02:04.553Z,6.30
2023-05-08T01:04:33.229Z,6.20
2023-05-08T01:07:02.091Z,6.20
2023-05-08T01:09:29.207Z,6.20
2023-05-08T01:12:26.592Z,6.20
2023-05-08T01:15:08.219Z,6.20
2023-05-08T01:17:41.227Z,6.20
2023-05-08T01:20:08.326Z,6.10
2023-05-08T01:22:55.060Z,6.10
2023-05-08T01:25:40.918Z,6.00
2023-05-08T01:28:38.364Z,6.00
2023-05-08T01:31:20.121Z,6.00
2023-05-08T01:33:56.758Z,5.90
2023-05-08T01:36:43.097Z,5.90
2023-05-08T01:39:21.768Z,5.90
2023-05-08T01:42:03.245Z,5.90
2023-05-08T01:44:38.376Z,5.90
2023-05-08T01:47:07.797Z,5.80
2023-05-08T01:49:44.443Z,5.90
2023-05-08T01:52:21.367Z,5.80
2023-05-08T01:55:21.756Z,5.80
2023-05-08T01:57:53.908Z,5.80
2023-05-08T02:00:24.000Z,5.70
2023-05-08T02:02:52.271Z,5.80
2023-05-08T02:05:22.764Z,5.80
2023-05-08T02:07:51.371Z,5.70
2023-05-08T02:10:19.967Z,5.60
2023-05-08T02:12:48.670Z,5.60
2023-05-08T02:15:17.675Z,5.50
2023-05-08T02:17:48.612Z,5.60
2023-05-08T02:20:16.367Z,5.60
2023-05-08T02:22:46.136Z,5.60
2023-05-08T02:25:15.336Z,5.70
2023-05-08T02:27:45.715Z,5.60
2023-05-08T02:30:15.170Z,5.60
2023-05-08T02:32:47.910Z,5.60
2023-05-08T02:35:18.427Z,5.70
2023-05-08T02:37:54.326Z,5.60
2023-05-08T02:40:22.865Z,5.60
2023-05-08T02:42:50.466Z,5.60
2023-05-08T02:45:17.642Z,5.60
2023-05-08T02:48:07.973Z,5.70
2023-05-08T02:50:59.273Z,5.60
2023-05-08T02:53:34.422Z,5.70
2023-05-08T02:56:18.932Z,5.70
2023-05-08T02:58:53.687Z,5.60
2023-05-08T03:01:36.100Z,5.70
2023-05-08T03:04:08.833Z,5.70
2023-05-08T03:06:42.815Z,5.70
2023-05-08T03:09:18.743Z,5.70
2023-05-08T03:11:49.488Z,5.70
2023-05-08T03:14:21.650Z,5.70
2023-05-08T03:16:52.304Z,5.70
2023-05-08T03:19:30.445Z,5.70
2023-05-08T03:21:58.824Z,5.70
2023-05-08T03:24:28.425Z,5.60
2023-05-08T03:26:57.141Z,5.70
2023-05-08T03:29:25.416Z,5.80
2023-05-08T03:31:53.704Z,5.70
2023-05-08T03:34:23.090Z,5.70
2023-05-08T03:36:51.352Z,5.70
2023-05-08T03:39:18.375Z,5.80
2023-05-08T03:41:45.895Z,5.80
2023-05-08T03:44:13.869Z,5.90
2023-05-08T03:46:42.413Z,5.90
2023-05-08T03:49:11.097Z,5.90
2023-05-08T03:51:42.311Z,6.00
2023-05-08T03:54:09.228Z,6.00
2023-05-08T03:56:36.248Z,6.00
2023-05-08T03:59:12.487Z,6.10
2023-05-08T04:01:44.398Z,6.20
2023-05-08T04:04:24.402Z,6.20
2023-05-08T04:07:06.872Z,6.20
2023-05-08T04:09:58.159Z,6.20
2023-05-08T04:12:37.539Z,6.30
2023-05-08T04:15:17.542Z,6.30
2023-05-08T04:18:09.739Z,6.30
2023-05-08T04:20:40.405Z,6.40
2023-05-08T04:23:09.393Z,6.40
2023-05-08T04:25:38.229Z,6.40
2023-05-08T04:28:06.157Z,6.50
2023-05-08T04:30:33.883Z,6.50
2023-05-08T04:33:04.178Z,6.60
2023-05-08T04:35:31.619Z,6.60
2023-05-08T04:37:59.724Z,6.70
2023-05-08T04:40:27.004Z,6.70
2023-05-08T04:42:54.064Z,6.70
2023-05-08T04:45:21.189Z,6.80
2023-05-08T04:47:48.119Z,6.80
2023-05-08T04:50:15.136Z,6.90
2023-05-08T04:52:42.846Z,6.90
2023-05-08T04:55:10.259Z,6.90
2023-05-08T04:57:37.314Z,7.00
2023-05-08T05:00:06.112Z,7.00
2023-05-08T05:02:33.089Z,7.10
2023-05-08T05:05:01.342Z,7.10
2023-05-08T05:07:28.284Z,7.20
2023-05-08T05:09:55.383Z,7.20
2023-05-08T05:12:22.434Z,7.30
2023-05-08T05:14:49.296Z,7.30
2023-05-08T05:17:16.354Z,7.40
2023-05-08T05:19:43.269Z,7.40
2023-05-08T05:22:10.218Z,7.50
2023-05-08T05:24:37.205Z,7.50
2023-05-08T05:27:04.623Z,7.50
2023-05-08T05:29:31.615Z,7.60
2023-05-08T05:31:58.605Z,7.60
2023-05-08T05:34:25.721Z,7.70
2023-05-08T05:36:52.740Z,7.80
2023-05-08T05:39:19.646Z,7.80
2023-05-08T05:41:46.644Z,7.90
2023-05-08T05:44:13.543Z,7.90
2023-05-08T05:46:42.801Z,8.00
2023-05-08T05:49:12.257Z,8.10
2023-05-08T05:51:39.156Z,8.20
2023-05-08T05:54:06.113Z,8.30
2023-05-08T05:56:33.094Z,8.40
2023-05-08T05:59:00.011Z,8.50
2023-05-08T06:01:29.078Z,8.60
2023-05-08T06:03:56.224Z,8.80
2023-05-08T06:06:23.303Z,8.80
2023-05-08T06:08:50.290Z,8.90
2023-05-08T06:11:17.473Z,9.00
2023-05-08T06:13:44.509Z,9.10
2023-05-08T06:16:12.010Z,9.10
2023-05-08T06:18:38.868Z,9.20
2023-05-08T06:21:06.075Z,9.30
2023-05-08T06:23:33.669Z,9.30
2023-05-08T06:26:00.743Z,9.40
2023-05-08T06:28:28.175Z,9.50
2023-05-08T06:30:55.223Z,9.60
2023-05-08T06:33:23.231Z,9.70
2023-05-08T06:35:51.691Z,9.70
2023-05-08T06:38:19.065Z,9.70
2023-05-08T06:40:47.120Z,9.80
2023-05-08T06:43:14.106Z,9.90
2023-05-08T06:45:41.163Z,10.00
2023-05-08T06:48:08.231Z,10.10
2023-05-08T06:50:39.295Z,10.30
2023-05-08T06:53:07.215Z,10.40
2023-05-08T06:55:34.255Z,10.50
2023-05-08T06:58:01.289Z,10.70
2023-05-08T07:00:28.423Z,10.90
2023-05-08T07:02:55.767Z,11.10
2023-05-08T07:05:22.958Z,11.30
2023-05-08T07:07:49.956Z,11.50
2023-05-08T07:10:19.893Z,11.50
2023-05-08T07:12:46.896Z,11.60
2023-05-08T07:15:25.475Z,11.80
2023-05-08T07:17:54.186Z,11.90
2023-05-08T07:20:21.721Z,12.10
2023-05-08T07:22:48.907Z,12.20
2023-05-08T07:25:16.249Z,12.30
2023-05-08T07:27:43.335Z,12.30
2023-05-08T07:30:10.772Z,12.40
2023-05-08T07:32:39.386Z,12.40
2023-05-08T07:35:11.119Z,12.30
2023-05-08T07:37:39.755Z,12.40
2023-05-08T07:40:07.398Z,12.30
2023-05-08T07:42:44.620Z,12.20
2023-05-08T07:45:13.473Z,12.10
2023-05-08T07:47:49.987Z,12.00
2023-05-08T07:50:17.544Z,12.00
2023-05-08T07:52:44.756Z,12.10
2023-05-08T07:55:12.296Z,12.30
2023-05-08T07:57:40.904Z,12.40
2023-05-08T08:00:10.484Z,12.60
2023-05-08T08:02:38.310Z,12.60
2023-05-08T08:05:06.238Z,12.80
2023-05-08T08:07:33.179Z,13.10
2023-05-08T08:10:00.666Z,13.30
2023-05-08T08:12:28.551Z,13.50
2023-05-08T08:14:56.169Z,13.70
2023-05-08T08:17:23.343Z,13.80
2023-05-08T08:19:50.443Z,13.90
2023-05-08T08:22:17.432Z,14.00
2023-05-08T08:24:44.296Z,14.00
2023-05-08T08:27:11.340Z,14.20
2023-05-08T08:29:38.276Z,14.40
2023-05-08T08:32:05.814Z,14.60
2023-05-08T08:34:35.900Z,14.70
2023-05-08T08:37:04.875Z,14.90
2023-05-08T08:39:34.700Z,15.10
2023-05-08T08:42:02.020Z,15.10
2023-05-08T08:44:29.983Z,15.20
2023-05-08T08:46:58.826Z,15.10
2023-05-08T08:49:32.951Z,15.30
2023-05-08T08:52:03.421Z,15.60
2023-05-08T08:54:35.030Z,15.70
2023-05-08T08:57:05.236Z,15.90
2023-05-08T08:59:33.699Z,16.20
2023-05-08T09:02:07.485Z,16.50
2023-05-08T09:04:34.457Z,16.70
2023-05-08T09:07:05.302Z,16.60
2023-05-08T09:09:37.721Z,16.80
2023-05-08T09:12:05.134Z,16.60
2023-05-08T09:14:32.065Z,16.80
2023-05-08T09:16:58.976Z,17.00
2023-05-08T09:19:28.955Z,17.10
2023-05-08T09:22:00.592Z,16.90
2023-05-08T09:24:57.413Z,17.10
2023-05-08T09:27:29.943Z,16.90
2023-05-08T09:30:02.091Z,17.10
2023-05-08T09:32:30.563Z,16.90
2023-05-08T09:34:58.151Z,17.00
2023-05-08T09:37:26.824Z,17.20
2023-05-08T09:39:54.838Z,17.40
2023-05-08T09:42:23.477Z,16.90
2023-05-08T09:44:52.731Z,17.00
2023-05-08T09:47:24.393Z,17.00
2023-05-08T09:50:08.635Z,16.70
2023-05-08T09:52:38.353Z,16.60
2023-05-08T09:55:10.204Z,16.60
2023-05-08T09:57:39.517Z,16.90
2023-05-08T10:00:13.727Z,17.10
2023-05-08T10:02:53.490Z,17.30
2023-05-08T10:05:32.219Z,17.20
2023-05-08T10:08:22.193Z,17.30
2023-05-08T10:10:49.836Z,17.40
2023-05-08T10:13:16.893Z,17.30
2023-05-08T10:15:44.800Z,17.50
2023-05-08T10:18:12.387Z,17.70
2023-05-08T10:20:41.493Z,17.80
2023-05-08T10:23:14.206Z,18.00
2023-05-08T10:25:46.480Z,18.10
2023-05-08T10:28:32.970Z,18.10
2023-05-08T10:31:01.887Z,17.50
2023-05-08T10:33:31.840Z,17.70
2023-05-08T10:36:00.080Z,17.90
2023-05-08T10:38:27.687Z,18.10
2023-05-08T10:40:58.148Z,18.30
2023-05-08T10:43:31.198Z,18.40
2023-05-08T10:46:02.343Z,17.70
2023-05-08T10:48:39.183Z,17.50
2023-05-08T10:51:20.063Z,17.10
2023-05-08T10:53:53.973Z,17.60
2023-05-08T10:56:29.048Z,17.70
2023-05-08T10:58:57.797Z,17.90
2023-05-08T11:01:26.207Z,17.30
2023-05-08T11:03:55.897Z,17.50
2023-05-08T11:06:54.221Z,17.20
2023-05-08T11:09:28.858Z,17.10
2023-05-08T11:12:07.268Z,17.40
2023-05-08T11:14:38.011Z,17.60
2023-05-08T11:17:05.830Z,17.50
2023-05-08T11:19:32.853Z,17.50
2023-05-08T11:22:27.057Z,17.70
2023-05-08T11:24:55.834Z,17.60
2023-05-08T11:27:48.308Z,17.50
2023-05-08T11:30:25.866Z,17.80
2023-05-08T11:33:05.765Z,17.60
2023-05-08T11:35:42.618Z,17.90
2023-05-08T11:38:38.672Z,18.00
2023-05-08T11:41:07.314Z,18.10
2023-05-08T11:43:34.236Z,17.80
2023-05-08T11:46:13.460Z,17.70
2023-05-08T11:48:40.875Z,17.50
2023-05-08T11:51:07.851Z,17.60
2023-05-08T11:53:36.466Z,17.70
2023-05-08T11:56:04.209Z,17.70
2023-05-08T11:58:31.305Z,17.80
2023-05-08T12:00:58.420Z,18.00
2023-05-08T12:03:25.759Z,18.10
2023-05-08T12:05:56.954Z,18.10
2023-05-08T12:08:24.295Z,17.90
2023-05-08T12:10:54.021Z,17.90
2023-05-08T12:13:29.249Z,17.80
2023-05-08T12:15:59.084Z,17.70
2023-05-08T12:18:28.322Z,17.50
2023-05-08T12:20:58.377Z,17.60
2023-05-08T12:23:26.411Z,17.60
2023-05-08T12:25:55.415Z,17.70
2023-05-08T12:28:22.945Z,17.30
2023-05-08T12:30:50.469Z,17.80
2023-05-08T12:33:18.646Z,17.90
2023-05-08T12:35:45.856Z,18.00
2023-05-08T12:38:13.082Z,17.80
2023-05-08T12:40:53.005Z,17.90
2023-05-08T12:43:20.061Z,17.70
2023-05-08T12:45:47.213Z,17.20
2023-05-08T12:48:18.242Z,17.50
2023-05-08T12:50:46.445Z,17.60
2023-05-08T12:53:15.524Z,17.70
2023-05-08T12:55:57.614Z,17.90
2023-05-08T12:58:26.614Z,17.90
2023-05-08T13:00:54.817Z,17.20
2023-05-08T13:03:30.033Z,17.70
2023-05-08T13:06:00.464Z,17.30
2023-05-08T13:08:38.588Z,17.30
2023-05-08T13:11:06.710Z,17.20
2023-05-08T13:13:35.409Z,16.90
2023-05-08T13:16:06.802Z,17.10
2023-05-08T13:18:36.727Z,17.00
2023-05-08T13:21:04.142Z,17.10
2023-05-08T13:23:31.105Z,16.60
2023-05-08T13:25:58.104Z,16.60
2023-05-08T13:28:25.121Z,16.40
2023-05-08T13:30:52.146Z,16.50
2023-05-08T13:33:19.173Z,16.80
2023-05-08T13:35:46.109Z,16.90
2023-05-08T13:38:13.116Z,17.10
2023-05-08T13:40:40.172Z,16.90
2023-05-08T13:43:07.123Z,17.40
2023-05-08T13:45:34.157Z,17.40
2023-05-08T13:48:01.261Z,17.30
2023-05-08T13:50:28.370Z,17.30
2023-05-08T13:52:55.407Z,17.00
2023-05-08T13:55:23.333Z,17.30
2023-05-08T13:57:51.008Z,17.40
2023-05-08T14:00:18.393Z,17.40
2023-05-08T14:02:45.469Z,17.00
2023-05-08T14:05:12.761Z,17.10
2023-05-08T14:07:40.055Z,17.30
2023-05-08T14:10:07.287Z,17.50
2023-05-08T14:12:37.042Z,17.60
2023-05-08T14:15:05.167Z,17.50
2023-05-08T14:17:32.298Z,17.50
2023-05-08T14:19:59.311Z,17.70
2023-05-08T14:22:26.360Z,17.70
2023-05-08T14:24:53.447Z,17.40
2023-05-08T14:27:20.695Z,17.00
2023-05-08T14:29:47.900Z,16.90
2023-05-08T14:32:14.890Z,17.00
2023-05-08T14:34:41.898Z,16.80
2023-05-08T14:37:08.991Z,16.50
2023-05-08T14:39:35.968Z,16.50
2023-05-08T14:44:33.072Z,16.40
2023-05-08T14:47:00.043Z,16.50
2023-05-08T14:49:36.510Z,15.90
2023-05-08T14:52:05.581Z,15.50
2023-05-08T14:54:33.172Z,15.60
2023-05-08T14:57:00.739Z,15.70
2023-05-08T14:59:27.757Z,15.60
2023-05-08T15:01:54.857Z,15.70
2023-05-08T15:04:21.935Z,15.70
2023-05-08T15:06:49.006Z,15.60
2023-05-08T15:09:16.981Z,15.60
2023-05-08T15:11:44.625Z,15.60
2023-05-08T15:14:11.643Z,15.60
2023-05-08T15:16:38.674Z,15.30
2023-05-08T15:19:05.685Z,15.30
2023-05-08T15:21:32.633Z,15.10
2023-05-08T15:23:59.682Z,15.20
2023-05-08T15:26:26.629Z,15.10
2023-05-08T15:28:53.576Z,14.80
2023-05-08T15:31:20.614Z,14.80
2023-05-08T15:33:48.344Z,14.60
2023-05-08T15:36:15.770Z,14.60
2023-05-08T15:38:43.093Z,14.70
2023-05-08T15:41:14.657Z,14.60
2023-05-08T15:43:42.573Z,14.50
2023-05-08T15:46:09.574Z,14.60
2023-05-08T15:48:36.621Z,14.50
2023-05-08T15:51:03.734Z,14.30
2023-05-08T15:53:30.713Z,14.40
2023-05-08T15:55:57.702Z,14.40
2023-05-08T15:58:25.034Z,14.40
2023-05-08T16:00:52.184Z,14.30
2023-05-08T16:03:19.614Z,14.20
2023-05-08T16:05:46.681Z,14.00
2023-05-08T16:08:13.931Z,13.90
2023-05-08T16:10:42.459Z,13.70
2023-05-08T16:13:09.678Z,13.70
2023-05-08T16:15:36.756Z,13.50
2023-05-08T16:18:04.249Z,13.40
2023-05-08T16:20:32.892Z,13.30
2023-05-08T16:23:01.222Z,13.20
2023-05-08T16:25:28.235Z,13.10
2023-05-08T16:27:55.199Z,13.10
2023-05-08T16:30:22.128Z,12.90
2023-05-08T16:32:49.168Z,12.90
2023-05-08T16:35:16.458Z,12.80
2023-05-08T16:37:43.757Z,12.70
2023-05-08T16:40:11.160Z,12.70
2023-05-08T16:42:38.227Z,12.50
2023-05-08T16:45:05.963Z,12.50
2023-05-08T16:47:33.849Z,12.40
2023-05-08T16:50:01.050Z,12.30
2023-05-08T16:52:28.457Z,12.30
2023-05-08T16:54:55.455Z,12.20
2023-05-08T16:57:22.515Z,12.10
2023-05-08T16:59:49.715Z,12.10
2023-05-08T17:02:19.497Z,12.10
2023-05-08T17:04:47.510Z,12.10
2023-05-08T17:07:15.624Z,12.00
2023-05-08T17:09:42.745Z,12.00
2023-05-08T17:12:10.153Z,12.00
2023-05-08T17:14:39.472Z,11.80
2023-05-08T17:17:07.004Z,11.90
2023-05-08T17:19:34.182Z,11.80
2023-05-08T17:22:01.203Z,11.80
2023-05-08T17:24:30.719Z,11.80
2023-05-08T17:26:57.997Z,11.70
2023-05-08T17:29:25.057Z,11.80
2023-05-08T17:31:52.012Z,11.70
2023-05-08T17:34:18.977Z,11.70
2023-05-08T17:36:45.924Z,11.60
2023-05-08T17:39:12.952Z,11.50
2023-05-08T17:41:39.910Z,11.50
2023-05-08T17:44:07.173Z,11.50
2023-05-08T17:46:34.229Z,11.40
2023-05-08T17:49:01.263Z,11.40
2023-05-08T17:51:28.241Z,11.30
2023-05-08T17:53:56.689Z,11.20
2023-05-08T17:56:23.783Z,11.10
2023-05-08T17:58:52.550Z,11.10
2023-05-08T18:01:20.400Z,11.00
2023-05-08T18:03:48.493Z,11.00
2023-05-08T18:06:18.848Z,11.00
2023-05-08T18:08:46.384Z,10.90
2023-05-08T18:11:20.983Z,10.90
2023-05-08T18:13:48.224Z,10.80
2023-05-08T18:16:17.087Z,10.80
2023-05-08T18:18:44.742Z,10.80
2023-05-08T18:21:11.632Z,10.70
2023-05-08T18:23:38.666Z,10.70
2023-05-08T18:26:05.636Z,10.50
2023-05-08T18:28:32.545Z,10.50
2023-05-08T18:30:59.492Z,10.50
2023-05-08T18:33:26.427Z,10.50
2023-05-08T18:35:53.355Z,10.50
2023-05-08T18:38:20.423Z,10.40
2023-05-08T18:40:47.354Z,10.30
2023-05-08T18:43:14.495Z,10.30
2023-05-08T18:45:41.930Z,10.30
2023-05-08T18:48:09.756Z,10.30
2023-05-08T18:50:37.014Z,10.20
2023-05-08T18:53:04.274Z,10.10
2023-05-08T18:55:31.254Z,10.10
2023-05-08T18:57:58.270Z,10.00
2023-05-08T19:00:25.465Z,10.00
2023-05-08T19:02:52.381Z,9.90
2023-05-08T19:05:19.534Z,9.90
2023-05-08T19:07:46.506Z,9.80
2023-05-08T19:10:13.557Z,9.80
2023-05-08T19:12:40.719Z,9.80
2023-05-08T19:15:09.386Z,9.70
2023-05-08T19:17:37.021Z,9.70
2023-05-08T19:20:04.597Z,9.70
2023-05-08T19:22:33.853Z,9.60
2023-05-08T19:25:03.519Z,9.60
2023-05-08T19:27:32.077Z,9.50
2023-05-08T19:29:59.089Z,9.50
2023-05-08T19:32:26.164Z,9.50
2023-05-08T19:34:53.645Z,9.50
2023-05-08T19:37:20.601Z,9.40
2023-05-08T19:39:47.573Z,9.40
2023-05-08T19:42:14.593Z,9.30
2023-05-08T19:44:41.581Z,9.30
2023-05-08T19:47:08.500Z,9.20
2023-05-08T19:49:35.496Z,9.10
2023-05-08T19:52:02.428Z,9.10
2023-05-08T19:54:30.897Z,9.10
2023-05-08T19:56:58.110Z,9.10
2023-05-08T19:59:25.410Z,9.00
2023-05-08T20:01:53.672Z,8.90
2023-05-08T20:04:20.796Z,8.90
2023-05-08T20:06:47.795Z,8.90
2023-05-08T20:09:14.783Z,8.80
2023-05-08T20:11:41.733Z,8.80
2023-05-08T20:14:08.768Z,8.80
2023-05-08T20:16:35.791Z,8.80
2023-05-08T20:19:02.813Z,8.80
2023-05-08T20:21:33.964Z,8.80
2023-05-08T20:24:01.057Z,8.80
2023-05-08T20:26:28.538Z,8.70
2023-05-08T20:28:55.873Z,8.60
2023-05-08T20:31:22.849Z,8.60
2023-05-08T20:33:49.797Z,8.60
2023-05-08T20:36:16.697Z,8.60
2023-05-08T20:38:43.624Z,8.50
2023-05-08T20:41:10.507Z,8.40
2023-05-08T20:43:37.494Z,8.50
2023-05-08T20:46:04.545Z,8.40
2023-05-08T20:48:31.496Z,8.30
2023-05-08T20:50:58.436Z,8.30
2023-05-08T20:53:25.523Z,8.30
2023-05-08T20:56:05.743Z,8.30
2023-05-08T20:58:32.692Z,8.30
2023-05-08T21:00:59.619Z,8.30
2023-05-08T21:03:26.688Z,8.30
2023-05-08T21:05:55.179Z,8.20
2023-05-08T21:08:23.726Z,8.10
2023-05-08T21:10:51.910Z,8.00
2023-05-08T21:13:19.534Z,7.90
2023-05-08T21:15:50.404Z,7.90
2023-05-08T21:18:18.537Z,8.00
2023-05-08T21:20:49.868Z,8.00
2023-05-08T21:23:20.859Z,8.00
2023-05-08T21:25:50.703Z,8.00
2023-05-08T21:28:17.767Z,8.00
2023-05-08T21:30:45.365Z,8.00
2023-05-08T21:33:14.057Z,8.00
2023-05-08T21:35:42.228Z,8.00
2023-05-08T21:38:12.037Z,7.90
2023-05-08T21:40:39.538Z,7.90
2023-05-08T21:43:06.640Z,7.90
2023-05-08T21:45:33.776Z,7.90
2023-05-08T21:48:00.816Z,7.90
2023-05-08T21:50:31.003Z,7.90
2023-05-08T21:52:58.024Z,7.90
2023-05-08T21:55:25.078Z,7.90
2023-05-08T21:57:52.100Z,7.90
2023-05-08T22:00:20.121Z,7.80
2023-05-08T22:02:47.423Z,7.90
2023-05-08T22:05:14.773Z,7.80
2023-05-08T22:07:41.991Z,7.80
2023-05-08T22:10:10.471Z,7.80
2023-05-08T22:12:37.590Z,7.80
2023-05-08T22:15:09.478Z,7.80
2023-05-08T22:17:40.265Z,7.80
2023-05-08T22:20:08.853Z,7.80
2023-05-08T22:22:35.769Z,7.80
2023-05-08T22:25:02.714Z,7.80
2023-05-08T22:27:29.651Z,7.80
2023-05-08T22:29:56.613Z,7.80
2023-05-08T22:32:24.455Z,7.80
2023-05-08T22:34:51.495Z,7.80
2023-05-08T22:37:18.764Z,7.80
2023-05-08T22:39:45.706Z,7.80
2023-05-08T22:42:12.743Z,7.80
2023-05-08T22:44:39.819Z,7.80
2023-05-08T22:47:06.929Z,7.80
2023-05-08T22:49:34.284Z,7.80
2023-05-08T22:52:01.240Z,7.80
2023-05-08T22:54:28.192Z,7.70
2023-05-08T22:56:55.107Z,7.70
2023-05-08T22:59:22.081Z,7.70
2023-05-08T23:01:49.010Z,7.60
2023-05-08T23:04:15.943Z,7.60
2023-05-08T23:06:42.827Z,7.60
2023-05-08T23:09:09.760Z,7.50
2023-05-08T23:11:36.743Z,7.60
2023-05-08T23:14:03.910Z,7.50
2023-05-08T23:16:30.939Z,7.60
2023-05-08T23:18:57.917Z,7.50
2023-05-08T23:21:24.971Z,7.50
2023-05-08T23:23:51.975Z,7.60
2023-05-08T23:26:18.939Z,7.60
2023-05-08T23:28:45.846Z,7.50
2023-05-08T23:31:13.158Z,7.50
2023-05-08T23:33:40.127Z,7.50
2023-05-08T23:36:07.336Z,7.50
2023-05-08T23:38:34.314Z,7.50
2023-05-08T23:41:01.457Z,7.50
2023-05-08T23:43:28.438Z,7.50
2023-05-08T23:45:55.745Z,7.50
2023-05-08T23:48:23.703Z,7.50
2023-05-08T23:50:50.723Z,7.50
2023-05-08T23:53:17.655Z,7.50
2023-05-08T23:55:44.619Z,7.40
2023-05-08T23:58:11.696Z,7.40
